createdAt,value
2018-07-03T00:00:10.677Z,12.60
2018-07-03T00:01:05.981Z,12.60
2018-07-03T00:02:08.489Z,12.50
2018-07-03T00:03:05.888Z,12.50
2018-07-03T00:04:05.472Z,12.50
2018-07-03T00:05:08.751Z,12.40
2018-07-03T00:06:05.152Z,12.40
2018-07-03T00:07:06.125Z,12.40
2018-07-03T00:08:05.140Z,12.40
2018-07-03T00:09:06.277Z,12.30
2018-07-03T00:10:06.196Z,12.30
2018-07-03T00:11:10.726Z,12.20
2018-07-03T00:12:06.153Z,12.20
2018-07-03T00:13:05.570Z,12.20
2018-07-03T00:14:15.625Z,12.20
2018-07-03T00:15:06.113Z,12.10
2018-07-03T00:16:10.647Z,12.10
2018-07-03T00:17:13.323Z,12.20
2018-07-03T00:18:06.222Z,12.10
2018-07-03T00:19:05.338Z,12.20
2018-07-03T00:20:05.427Z,12.20
2018-07-03T00:21:05.407Z,12.10
2018-07-03T00:22:05.946Z,12.20
2018-07-03T00:23:08.027Z,12.10
2018-07-03T00:24:10.503Z,12.10
2018-07-03T00:25:08.118Z,12.10
2018-07-03T00:26:05.566Z,12.10
2018-07-03T00:27:08.021Z,12.10
2018-07-03T00:28:11.509Z,12.10
2018-07-03T00:29:10.962Z,12.10
2018-07-03T00:30:05.392Z,12.10
2018-07-03T00:31:05.943Z,12.20
2018-07-03T00:32:05.969Z,12.10
2018-07-03T00:33:05.628Z,12.20
2018-07-03T00:34:06.075Z,12.10
2018-07-03T00:35:13.598Z,12.10
2018-07-03T00:36:06.110Z,12.10
2018-07-03T00:37:06.122Z,12.10
2018-07-03T00:38:08.098Z,12.10
2018-07-03T00:39:06.355Z,12.10
2018-07-03T00:40:05.794Z,12.10
2018-07-03T00:41:08.621Z,12.10
2018-07-03T00:42:06.040Z,12.00
2018-07-03T00:43:08.183Z,12.00
2018-07-03T00:44:05.892Z,12.00
2018-07-03T00:45:08.004Z,11.90
2018-07-03T00:46:05.367Z,11.90
2018-07-03T00:47:08.169Z,11.90
2018-07-03T00:48:06.321Z,11.90
2018-07-03T00:49:08.162Z,11.90
2018-07-03T00:50:08.686Z,11.80
2018-07-03T00:51:05.114Z,11.80
2018-07-03T00:52:05.390Z,11.80
2018-07-03T00:53:05.705Z,11.70
2018-07-03T00:54:07.846Z,11.70
2018-07-03T00:55:10.138Z,11.70
2018-07-03T00:56:05.093Z,11.70
2018-07-03T00:57:05.366Z,11.70
2018-07-03T00:58:05.777Z,11.60
2018-07-03T00:59:05.487Z,11.60
2018-07-03T01:00:05.672Z,11.60
2018-07-03T01:01:05.124Z,11.60
2018-07-03T01:02:05.831Z,11.60
2018-07-03T01:03:09.621Z,11.50
2018-07-03T01:04:06.094Z,11.50
2018-07-03T01:05:08.085Z,11.50
2018-07-03T01:06:08.139Z,11.50
2018-07-03T01:07:08.079Z,11.40
2018-07-03T01:08:05.395Z,11.50
2018-07-03T01:09:08.731Z,11.40
2018-07-03T01:10:05.382Z,11.40
2018-07-03T01:11:07.082Z,11.40
2018-07-03T01:12:08.078Z,11.40
2018-07-03T01:13:05.884Z,11.30
2018-07-03T01:14:05.392Z,11.40
2018-07-03T01:15:08.859Z,11.30
2018-07-03T01:16:05.330Z,11.30
2018-07-03T01:17:05.566Z,11.30
2018-07-03T01:18:10.353Z,11.30
2018-07-03T01:19:14.157Z,11.20
2018-07-03T01:20:05.610Z,11.30
2018-07-03T01:21:05.786Z,11.20
2018-07-03T01:22:05.908Z,11.20
2018-07-03T01:23:06.107Z,11.20
2018-07-03T01:24:08.058Z,11.20
2018-07-03T01:25:05.426Z,11.20
2018-07-03T01:26:06.994Z,11.20
2018-07-03T01:27:05.656Z,11.10
2018-07-03T01:28:10.398Z,11.10
2018-07-03T01:29:05.784Z,11.10
2018-07-03T01:30:08.196Z,11.10
2018-07-03T01:31:05.858Z,11.10
2018-07-03T01:32:08.265Z,11.10
2018-07-03T01:33:06.311Z,11.10
2018-07-03T01:34:10.597Z,11.00
2018-07-03T01:35:05.883Z,11.00
2018-07-03T01:36:06.407Z,11.00
2018-07-03T01:37:05.993Z,11.00
2018-07-03T01:38:05.556Z,11.00
2018-07-03T01:39:05.697Z,10.90
2018-07-03T01:40:11.198Z,10.90
2018-07-03T01:41:07.963Z,10.90
2018-07-03T01:42:05.318Z,10.80
2018-07-03T01:43:05.665Z,10.90
2018-07-03T01:44:05.388Z,10.90
2018-07-03T01:45:05.367Z,10.80
2018-07-03T01:46:05.877Z,10.80
2018-07-03T01:47:05.695Z,10.80
2018-07-03T01:48:05.738Z,10.80
2018-07-03T01:49:05.410Z,10.80
2018-07-03T01:50:08.078Z,10.80
2018-07-03T01:51:10.635Z,10.80
2018-07-03T01:52:05.095Z,10.80
2018-07-03T01:53:05.140Z,10.80
2018-07-03T01:54:07.938Z,10.80
2018-07-03T01:55:10.383Z,10.80
2018-07-03T01:56:09.082Z,10.80
2018-07-03T01:57:05.586Z,10.80
2018-07-03T01:58:05.959Z,10.80
2018-07-03T01:59:06.136Z,10.80
2018-07-03T02:00:05.727Z,10.80
2018-07-03T02:01:06.062Z,10.70
2018-07-03T02:02:10.659Z,10.70
2018-07-03T02:03:06.105Z,10.70
2018-07-03T02:04:05.209Z,10.70
2018-07-03T02:05:08.482Z,10.70
2018-07-03T02:06:08.891Z,10.70
2018-07-03T02:07:05.266Z,10.70
2018-07-03T02:08:05.290Z,10.60
2018-07-03T02:09:05.045Z,10.60
2018-07-03T02:10:05.374Z,10.60
2018-07-03T02:11:06.306Z,10.60
2018-07-03T02:12:05.684Z,10.60
2018-07-03T02:13:05.577Z,10.60
2018-07-03T02:14:05.579Z,10.60
2018-07-03T02:15:05.961Z,10.60
2018-07-03T02:16:05.065Z,10.60
2018-07-03T02:17:05.432Z,10.60
2018-07-03T02:18:05.370Z,10.50
2018-07-03T02:19:08.712Z,10.50
2018-07-03T02:20:10.330Z,10.50
2018-07-03T02:21:06.285Z,10.50
2018-07-03T02:22:05.877Z,10.50
2018-07-03T02:23:10.681Z,10.50
2018-07-03T02:24:10.478Z,10.50
2018-07-03T02:25:08.740Z,10.50
2018-07-03T02:26:05.264Z,10.40
2018-07-03T02:27:06.968Z,10.40
2018-07-03T02:28:05.903Z,10.40
2018-07-03T02:29:09.630Z,10.30
2018-07-03T02:30:10.218Z,10.40
2018-07-03T02:31:05.465Z,10.40
2018-07-03T02:32:05.463Z,10.30
2018-07-03T02:33:10.524Z,10.30
2018-07-03T02:34:05.857Z,10.30
2018-07-03T02:35:06.019Z,10.30
2018-07-03T02:36:05.308Z,10.30
2018-07-03T02:37:05.562Z,10.30
2018-07-03T02:38:05.807Z,10.30
2018-07-03T02:39:05.912Z,10.30
2018-07-03T02:40:08.427Z,10.30
2018-07-03T02:41:07.852Z,10.30
2018-07-03T02:42:05.151Z,10.30
2018-07-03T02:43:05.593Z,10.30
2018-07-03T02:44:08.840Z,10.30
2018-07-03T02:45:05.330Z,10.20
2018-07-03T02:46:05.283Z,10.30
2018-07-03T02:47:05.438Z,10.30
2018-07-03T02:48:05.325Z,10.30
2018-07-03T02:49:05.745Z,10.20
2018-07-03T02:50:05.460Z,10.30
2018-07-03T02:51:05.619Z,10.20
2018-07-03T02:52:05.671Z,10.20
2018-07-03T02:53:05.475Z,10.20
2018-07-03T02:54:08.283Z,10.10
2018-07-03T02:55:06.055Z,10.10
2018-07-03T02:56:08.403Z,10.10
2018-07-03T02:57:05.834Z,10.00
2018-07-03T02:58:05.779Z,10.10
2018-07-03T02:59:08.327Z,10.10
2018-07-03T03:00:10.936Z,10.10
2018-07-03T03:01:07.929Z,10.10
2018-07-03T03:02:08.221Z,10.00
2018-07-03T03:03:05.127Z,10.00
2018-07-03T03:04:05.976Z,10.10
2018-07-03T03:05:05.142Z,10.00
2018-07-03T03:06:05.768Z,10.00
2018-07-03T03:07:06.397Z,10.00
2018-07-03T03:08:06.176Z,10.00
2018-07-03T03:09:05.825Z,9.90
2018-07-03T03:10:05.750Z,9.90
2018-07-03T03:11:07.848Z,9.90
2018-07-03T03:12:08.511Z,9.90
2018-07-03T03:13:06.042Z,9.90
2018-07-03T03:14:05.204Z,9.90
2018-07-03T03:15:08.503Z,9.90
2018-07-03T03:16:13.227Z,9.90
2018-07-03T03:17:05.665Z,9.90
2018-07-03T03:18:05.191Z,9.90
2018-07-03T03:19:10.420Z,9.90
2018-07-03T03:20:06.026Z,9.80
2018-07-03T03:21:08.663Z,9.90
2018-07-03T03:22:05.163Z,9.90
2018-07-03T03:23:05.186Z,9.90
2018-07-03T03:24:06.360Z,9.90
2018-07-03T03:25:05.998Z,9.80
2018-07-03T03:26:10.644Z,9.80
2018-07-03T03:27:05.931Z,9.80
2018-07-03T03:28:05.331Z,9.80
2018-07-03T03:29:05.853Z,9.80
2018-07-03T03:30:05.343Z,9.80
2018-07-03T03:31:05.833Z,9.80
2018-07-03T03:32:06.456Z,9.80
2018-07-03T03:33:06.080Z,9.80
2018-07-03T03:34:05.667Z,9.80
2018-07-03T03:35:05.555Z,9.80
2018-07-03T03:36:05.485Z,9.80
2018-07-03T03:37:10.453Z,9.80
2018-07-03T03:38:05.890Z,9.80
2018-07-03T03:39:05.359Z,9.80
2018-07-03T03:40:05.426Z,9.90
2018-07-03T03:41:10.676Z,9.90
2018-07-03T03:42:06.076Z,9.90
2018-07-03T03:43:05.562Z,9.90
2018-07-03T03:44:10.134Z,10.00
2018-07-03T03:45:10.292Z,10.00
2018-07-03T03:46:10.845Z,10.20
2018-07-03T03:47:06.033Z,10.20
2018-07-03T03:48:10.695Z,10.30
2018-07-03T03:49:05.886Z,10.40
2018-07-03T03:50:10.898Z,10.50
2018-07-03T03:51:05.166Z,10.60
2018-07-03T03:52:05.716Z,10.70
2018-07-03T03:53:06.046Z,10.70
2018-07-03T03:54:10.350Z,10.80
2018-07-03T03:55:05.622Z,10.90
2018-07-03T03:56:05.085Z,11.00
2018-07-03T03:57:05.727Z,11.10
2018-07-03T03:58:10.771Z,11.20
2018-07-03T03:59:06.445Z,11.30
2018-07-03T04:00:06.320Z,11.40
2018-07-03T04:01:05.253Z,11.50
2018-07-03T04:02:05.649Z,11.70
2018-07-03T04:03:05.269Z,11.80
2018-07-03T04:04:10.426Z,11.90
2018-07-03T04:05:05.698Z,12.10
2018-07-03T04:06:05.230Z,12.20
2018-07-03T04:07:05.807Z,12.40
2018-07-03T04:08:05.165Z,12.50
2018-07-03T04:09:05.523Z,12.70
2018-07-03T04:10:05.679Z,12.80
2018-07-03T04:11:05.184Z,13.00
2018-07-03T04:12:05.385Z,13.10
2018-07-03T04:13:05.763Z,13.20
2018-07-03T04:14:05.802Z,13.40
2018-07-03T04:15:15.382Z,13.70
2018-07-03T04:16:05.797Z,13.70
2018-07-03T04:17:08.361Z,13.90
2018-07-03T04:18:10.921Z,14.00
2018-07-03T04:19:16.009Z,14.10
2018-07-03T04:20:05.342Z,14.20
2018-07-03T04:21:08.143Z,14.50
2018-07-03T04:22:05.648Z,14.50
2018-07-03T04:23:05.929Z,14.70
2018-07-03T04:24:08.362Z,15.00
2018-07-03T04:25:10.207Z,15.20
2018-07-03T04:26:08.395Z,15.40
2018-07-03T04:27:06.028Z,15.30
2018-07-03T04:28:05.496Z,15.50
2018-07-03T04:29:05.555Z,15.70
2018-07-03T04:30:08.384Z,16.00
2018-07-03T04:31:05.869Z,16.00
2018-07-03T04:32:10.680Z,16.30
2018-07-03T04:33:08.607Z,16.40
2018-07-03T04:34:08.593Z,16.60
2018-07-03T04:35:05.140Z,16.60
2018-07-03T04:36:07.656Z,16.80
2018-07-03T04:37:08.624Z,16.90
2018-07-03T04:38:05.063Z,16.90
2018-07-03T04:39:05.720Z,17.10
2018-07-03T04:40:05.225Z,17.20
2018-07-03T04:41:05.601Z,17.40
2018-07-03T04:42:05.195Z,17.50
2018-07-03T04:43:10.238Z,17.80
2018-07-03T04:44:05.719Z,17.80
2018-07-03T04:45:07.922Z,18.10
2018-07-03T04:46:05.310Z,18.10
2018-07-03T04:47:06.287Z,18.20
2018-07-03T04:48:06.925Z,18.40
2018-07-03T04:49:08.426Z,18.70
2018-07-03T04:50:05.859Z,18.60
2018-07-03T04:51:08.162Z,18.90
2018-07-03T04:52:09.047Z,19.10
2018-07-03T04:53:05.694Z,19.00
2018-07-03T04:54:06.061Z,19.20
2018-07-03T04:55:05.239Z,19.30
2018-07-03T04:56:06.356Z,19.40
2018-07-03T04:57:06.350Z,19.50
2018-07-03T04:58:06.359Z,19.60
2018-07-03T04:59:06.050Z,19.70
2018-07-03T05:00:08.116Z,19.90
2018-07-03T05:01:06.016Z,19.90
2018-07-03T05:02:05.819Z,20.00
2018-07-03T05:03:08.099Z,20.10
2018-07-03T05:04:15.941Z,20.10
2018-07-03T05:05:05.524Z,20.20
2018-07-03T05:06:10.114Z,20.20
2018-07-03T05:07:05.397Z,20.30
2018-07-03T05:08:05.695Z,20.30
2018-07-03T05:09:05.976Z,20.30
2018-07-03T05:10:10.958Z,20.40
2018-07-03T05:11:10.427Z,20.40
2018-07-03T05:12:05.801Z,20.40
2018-07-03T05:13:10.913Z,20.50
2018-07-03T05:14:07.730Z,20.60
2018-07-03T05:15:05.207Z,20.60
2018-07-03T05:16:05.447Z,20.60
2018-07-03T05:17:10.735Z,20.80
2018-07-03T05:18:05.563Z,20.80
2018-07-03T05:19:05.885Z,20.90
2018-07-03T05:20:05.318Z,20.80
2018-07-03T05:21:06.128Z,21.00
2018-07-03T05:22:06.063Z,21.00
2018-07-03T05:23:10.572Z,21.10
2018-07-03T05:24:06.163Z,21.10
2018-07-03T05:25:05.272Z,21.10
2018-07-03T05:26:05.418Z,21.20
2018-07-03T05:27:07.960Z,21.20
2018-07-03T05:28:10.532Z,21.20
2018-07-03T05:29:10.661Z,21.20
2018-07-03T05:30:05.035Z,21.20
2018-07-03T05:31:05.108Z,21.20
2018-07-03T05:32:06.318Z,21.30
2018-07-03T05:33:10.739Z,21.30
2018-07-03T05:34:05.969Z,21.30
2018-07-03T05:35:09.342Z,21.40
2018-07-03T05:36:05.897Z,21.40
2018-07-03T05:37:08.087Z,21.50
2018-07-03T05:38:08.065Z,21.50
2018-07-03T05:39:05.511Z,21.50
2018-07-03T05:40:10.864Z,21.70
2018-07-03T05:41:05.273Z,21.70
2018-07-03T05:42:10.730Z,21.80
2018-07-03T05:43:05.950Z,21.80
2018-07-03T05:44:05.438Z,21.90
2018-07-03T05:45:07.786Z,22.00
2018-07-03T05:46:05.845Z,22.00
2018-07-03T05:47:05.964Z,22.10
2018-07-03T05:48:05.785Z,22.10
2018-07-03T05:49:07.911Z,22.10
2018-07-03T05:50:05.298Z,22.10
2018-07-03T05:51:05.323Z,22.20
2018-07-03T05:52:08.513Z,22.20
2018-07-03T05:53:08.920Z,22.20
2018-07-03T05:54:05.414Z,22.20
2018-07-03T05:55:05.799Z,22.20
2018-07-03T05:56:06.112Z,22.20
2018-07-03T05:57:10.916Z,22.40
2018-07-03T05:58:05.876Z,22.40
2018-07-03T05:59:08.305Z,22.50
2018-07-03T06:00:08.828Z,22.50
2018-07-03T06:01:05.420Z,22.50
2018-07-03T06:02:05.407Z,22.60
2018-07-03T06:03:05.841Z,22.60
2018-07-03T06:04:05.957Z,22.70
2018-07-03T06:05:08.584Z,22.80
2018-07-03T06:06:09.072Z,22.80
2018-07-03T06:07:05.554Z,22.90
2018-07-03T06:08:05.715Z,22.90
2018-07-03T06:09:08.291Z,23.00
2018-07-03T06:10:08.305Z,23.00
2018-07-03T06:11:05.722Z,23.00
2018-07-03T06:12:10.264Z,23.10
2018-07-03T06:13:05.482Z,23.10
2018-07-03T06:14:08.565Z,23.20
2018-07-03T06:15:05.231Z,23.20
2018-07-03T06:16:05.883Z,23.20
2018-07-03T06:17:11.585Z,23.40
2018-07-03T06:18:06.305Z,23.40
2018-07-03T06:19:05.209Z,23.50
2018-07-03T06:20:05.801Z,23.50
2018-07-03T06:21:06.367Z,23.60
2018-07-03T06:22:05.727Z,23.60
2018-07-03T06:23:05.179Z,23.70
2018-07-03T06:24:05.735Z,23.80
2018-07-03T06:25:05.511Z,23.90
2018-07-03T06:26:05.671Z,24.00
2018-07-03T06:27:08.334Z,24.10
2018-07-03T06:28:05.707Z,24.10
2018-07-03T06:29:10.793Z,24.20
2018-07-03T06:30:06.055Z,24.20
2018-07-03T06:31:05.579Z,24.30
2018-07-03T06:32:05.768Z,24.40
2018-07-03T06:33:05.861Z,24.40
2018-07-03T06:34:05.999Z,24.40
2018-07-03T06:35:05.984Z,24.40
2018-07-03T06:36:08.019Z,24.40
2018-07-03T06:37:05.333Z,24.40
2018-07-03T06:38:05.448Z,24.40
2018-07-03T06:39:05.444Z,24.50
2018-07-03T06:40:05.959Z,24.50
2018-07-03T06:41:10.966Z,24.50
2018-07-03T06:42:05.088Z,24.60
2018-07-03T06:43:06.048Z,24.60
2018-07-03T06:44:05.241Z,24.70
2018-07-03T06:45:08.082Z,24.80
2018-07-03T06:46:05.563Z,24.80
2018-07-03T06:47:06.057Z,24.90
2018-07-03T06:48:10.687Z,24.90
2018-07-03T06:49:10.837Z,25.00
2018-07-03T06:50:05.893Z,25.00
2018-07-03T06:51:05.446Z,25.10
2018-07-03T06:52:05.166Z,25.10
2018-07-03T06:53:05.028Z,25.10
2018-07-03T06:54:05.938Z,25.20
2018-07-03T06:55:07.983Z,25.20
2018-07-03T06:56:05.413Z,25.20
2018-07-03T06:57:11.047Z,25.20
2018-07-03T06:58:05.449Z,25.20
2018-07-03T06:59:05.966Z,25.20
2018-07-03T07:00:05.607Z,25.20
2018-07-03T07:01:05.941Z,25.20
2018-07-03T07:02:06.004Z,25.30
2018-07-03T07:03:05.254Z,25.30
2018-07-03T07:04:07.628Z,25.40
2018-07-03T07:05:11.140Z,25.40
2018-07-03T07:06:05.573Z,25.40
2018-07-03T07:07:06.237Z,25.40
2018-07-03T07:08:10.690Z,25.40
2018-07-03T07:09:05.862Z,25.40
2018-07-03T07:10:05.234Z,25.50
2018-07-03T07:11:08.279Z,25.50
2018-07-03T07:12:05.882Z,25.50
2018-07-03T07:13:05.065Z,25.50
2018-07-03T07:14:05.250Z,25.50
2018-07-03T07:15:05.682Z,25.60
2018-07-03T07:16:10.199Z,25.60
2018-07-03T07:17:10.908Z,25.70
2018-07-03T07:18:05.733Z,25.70
2018-07-03T07:19:05.206Z,25.60
2018-07-03T07:20:11.685Z,25.70
2018-07-03T07:21:05.089Z,25.70
2018-07-03T07:22:06.245Z,25.60
2018-07-03T07:23:05.593Z,25.60
2018-07-03T07:24:08.435Z,25.50
2018-07-03T07:25:06.013Z,25.50
2018-07-03T07:26:05.647Z,25.50
2018-07-03T07:27:05.448Z,25.50
2018-07-03T07:28:05.544Z,25.50
2018-07-03T07:29:05.766Z,25.50
2018-07-03T07:30:08.567Z,25.40
2018-07-03T07:31:06.116Z,25.40
2018-07-03T07:32:05.287Z,25.30
2018-07-03T07:33:05.316Z,25.30
2018-07-03T07:34:10.928Z,25.20
2018-07-03T07:35:05.894Z,25.20
2018-07-03T07:36:08.874Z,25.20
2018-07-03T07:37:08.467Z,25.30
2018-07-03T07:38:05.916Z,25.20
2018-07-03T07:39:05.341Z,25.40
2018-07-03T07:40:10.875Z,25.40
2018-07-03T07:41:06.048Z,25.50
2018-07-03T07:42:08.912Z,25.50
2018-07-03T07:43:05.317Z,25.50
2018-07-03T07:44:10.544Z,25.40
2018-07-03T07:45:05.558Z,25.40
2018-07-03T07:46:12.700Z,25.50
2018-07-03T07:47:05.133Z,25.50
2018-07-03T07:48:08.771Z,25.50
2018-07-03T07:49:10.350Z,25.50
2018-07-03T07:50:05.565Z,25.40
2018-07-03T07:51:05.900Z,25.50
2018-07-03T07:52:06.470Z,25.40
2018-07-03T07:53:08.599Z,25.40
2018-07-03T07:54:05.988Z,25.40
2018-07-03T07:55:10.511Z,25.50
2018-07-03T07:56:05.872Z,25.50
2018-07-03T07:57:10.249Z,25.60
2018-07-03T07:58:08.538Z,25.60
2018-07-03T07:59:08.765Z,25.70
2018-07-03T08:00:05.220Z,25.60
2018-07-03T08:01:09.707Z,25.80
2018-07-03T08:02:07.880Z,25.90
2018-07-03T08:03:05.461Z,25.80
2018-07-03T08:04:11.090Z,25.80
2018-07-03T08:05:05.781Z,25.80
2018-07-03T08:06:05.055Z,25.70
2018-07-03T08:07:05.702Z,25.70
2018-07-03T08:08:07.826Z,25.70
2018-07-03T08:09:05.367Z,25.70
2018-07-03T08:10:05.659Z,25.70
2018-07-03T08:11:08.355Z,25.60
2018-07-03T08:12:10.999Z,25.50
2018-07-03T08:13:06.625Z,25.50
2018-07-03T08:14:05.196Z,25.40
2018-07-03T08:15:10.682Z,25.40
2018-07-03T08:16:05.996Z,25.30
2018-07-03T08:17:10.709Z,25.20
2018-07-03T08:18:05.238Z,25.20
2018-07-03T08:19:05.918Z,25.20
2018-07-03T08:20:05.107Z,25.20
2018-07-03T08:21:07.668Z,25.10
2018-07-03T08:22:06.220Z,25.10
2018-07-03T08:23:05.755Z,25.10
2018-07-03T08:24:05.192Z,25.10
2018-07-03T08:25:05.883Z,25.10
2018-07-03T08:26:05.092Z,25.10
2018-07-03T08:27:08.099Z,25.10
2018-07-03T08:28:10.577Z,25.10
2018-07-03T08:29:10.552Z,25.10
2018-07-03T08:30:05.629Z,25.10
2018-07-03T08:31:05.471Z,25.20
2018-07-03T08:32:06.055Z,25.20
2018-07-03T08:33:05.848Z,25.20
2018-07-03T08:34:05.055Z,25.20
2018-07-03T08:35:05.103Z,25.10
2018-07-03T08:36:10.983Z,25.10
2018-07-03T08:37:05.492Z,25.10
2018-07-03T08:38:10.162Z,25.10
2018-07-03T08:39:10.483Z,25.10
2018-07-03T08:40:06.042Z,25.10
2018-07-03T08:41:05.654Z,25.10
2018-07-03T08:42:05.147Z,25.10
2018-07-03T08:43:05.837Z,25.10
2018-07-03T08:44:05.163Z,25.10
2018-07-03T08:45:05.334Z,25.00
2018-07-03T08:46:08.222Z,24.90
2018-07-03T08:47:05.756Z,24.90
2018-07-03T08:48:06.255Z,24.90
2018-07-03T08:49:05.872Z,24.90
2018-07-03T08:50:05.894Z,24.90
2018-07-03T08:51:05.242Z,24.90
2018-07-03T08:52:05.089Z,24.90
2018-07-03T08:53:05.082Z,24.90
2018-07-03T08:54:05.747Z,25.00
2018-07-03T08:55:05.206Z,25.00
2018-07-03T08:56:05.416Z,25.10
2018-07-03T08:57:08.077Z,25.30
2018-07-03T08:58:05.445Z,25.20
2018-07-03T08:59:05.505Z,25.30
2018-07-03T09:00:06.172Z,25.30
2018-07-03T09:01:05.806Z,25.40
2018-07-03T09:02:05.317Z,25.50
2018-07-03T09:03:05.887Z,25.60
2018-07-03T09:04:08.564Z,25.80
2018-07-03T09:05:06.229Z,25.70
2018-07-03T09:06:10.641Z,25.90
2018-07-03T09:07:06.454Z,25.90
2018-07-03T09:08:08.542Z,25.70
2018-07-03T09:09:05.742Z,25.70
2018-07-03T09:10:05.782Z,25.70
2018-07-03T09:11:10.729Z,25.60
2018-07-03T09:12:05.198Z,25.60
2018-07-03T09:13:05.414Z,25.50
2018-07-03T09:14:05.693Z,25.60
2018-07-03T09:15:05.853Z,25.60
2018-07-03T09:16:05.089Z,25.50
2018-07-03T09:17:05.741Z,25.60
2018-07-03T09:18:07.822Z,25.60
2018-07-03T09:19:10.451Z,25.70
2018-07-03T09:20:05.925Z,25.60
2018-07-03T09:21:10.508Z,25.70
2018-07-03T09:22:05.737Z,25.70
2018-07-03T09:23:08.882Z,25.80
2018-07-03T09:24:05.446Z,25.80
2018-07-03T09:25:06.357Z,25.70
2018-07-03T09:26:05.978Z,25.80
2018-07-03T09:27:07.679Z,25.90
2018-07-03T09:28:10.678Z,25.90
2018-07-03T09:29:08.349Z,25.80
2018-07-03T09:30:06.177Z,25.90
2018-07-03T09:31:05.760Z,25.80
2018-07-03T09:32:06.213Z,25.80
2018-07-03T09:33:05.525Z,25.70
2018-07-03T09:34:10.287Z,25.70
2018-07-03T09:35:05.680Z,25.70
2018-07-03T09:36:05.416Z,25.70
2018-07-03T09:37:05.667Z,25.80
2018-07-03T09:38:05.649Z,25.80
2018-07-03T09:39:05.903Z,25.80
2018-07-03T09:40:08.587Z,25.80
2018-07-03T09:41:08.013Z,25.70
2018-07-03T09:42:05.331Z,25.70
2018-07-03T09:43:12.808Z,25.70
2018-07-03T09:44:07.675Z,25.70
2018-07-03T09:45:05.111Z,25.70
2018-07-03T09:46:10.559Z,25.50
2018-07-03T09:47:08.244Z,25.60
2018-07-03T09:48:08.754Z,25.60
2018-07-03T09:49:08.776Z,25.70
2018-07-03T09:50:05.348Z,25.70
2018-07-03T09:51:10.976Z,25.70
2018-07-03T09:52:10.193Z,25.70
2018-07-03T09:53:05.618Z,25.80
2018-07-03T09:54:05.223Z,25.80
2018-07-03T09:55:05.977Z,25.90
2018-07-03T09:56:05.958Z,25.90
2018-07-03T09:57:05.097Z,26.00
2018-07-03T09:58:05.701Z,26.10
2018-07-03T09:59:07.852Z,26.10
2018-07-03T10:00:10.537Z,26.10
2018-07-03T10:01:05.804Z,26.10
2018-07-03T10:02:05.922Z,26.00
2018-07-03T10:03:05.066Z,26.00
2018-07-03T10:04:05.831Z,26.00
2018-07-03T10:05:08.269Z,25.90
2018-07-03T10:06:05.750Z,25.90
2018-07-03T10:07:08.998Z,25.80
2018-07-03T10:08:05.484Z,25.80
2018-07-03T10:09:05.128Z,25.70
2018-07-03T10:10:05.587Z,25.70
2018-07-03T10:11:10.436Z,25.70
2018-07-03T10:12:05.773Z,25.70
2018-07-03T10:13:05.836Z,25.70
2018-07-03T10:14:08.052Z,25.70
2018-07-03T10:15:10.511Z,25.80
2018-07-03T10:16:05.947Z,25.70
2018-07-03T10:17:05.339Z,25.80
2018-07-03T10:18:05.543Z,25.90
2018-07-03T10:19:10.115Z,26.00
2018-07-03T10:20:05.593Z,26.00
2018-07-03T10:21:05.686Z,26.10
2018-07-03T10:22:08.883Z,26.20
2018-07-03T10:23:10.464Z,26.20
2018-07-03T10:24:05.884Z,26.20
2018-07-03T10:25:05.913Z,26.20
2018-07-03T10:26:05.395Z,26.30
2018-07-03T10:27:05.246Z,26.40
2018-07-03T10:28:05.299Z,26.40
2018-07-03T10:29:07.911Z,26.60
2018-07-03T10:30:10.341Z,26.60
2018-07-03T10:31:10.380Z,26.60
2018-07-03T10:32:05.871Z,26.60
2018-07-03T10:33:05.451Z,26.60
2018-07-03T10:34:09.362Z,26.60
2018-07-03T10:35:05.845Z,26.60
2018-07-03T10:36:05.327Z,26.60
2018-07-03T10:37:06.225Z,26.60
2018-07-03T10:38:05.723Z,26.70
2018-07-03T10:39:05.497Z,26.80
2018-07-03T10:40:08.595Z,26.80
2018-07-03T10:41:05.238Z,26.80
2018-07-03T10:42:05.273Z,26.80
2018-07-03T10:43:05.762Z,26.70
2018-07-03T10:44:05.282Z,26.70
2018-07-03T10:45:06.425Z,26.70
2018-07-03T10:46:06.278Z,26.60
2018-07-03T10:47:08.262Z,26.60
2018-07-03T10:48:08.230Z,26.60
2018-07-03T10:49:05.619Z,26.60
2018-07-03T10:50:05.788Z,26.70
2018-07-03T10:51:05.733Z,26.70
2018-07-03T10:52:05.262Z,26.70
2018-07-03T10:53:07.685Z,26.60
2018-07-03T10:54:05.118Z,26.60
2018-07-03T10:55:13.116Z,26.50
2018-07-03T10:56:10.695Z,26.50
2018-07-03T10:57:06.055Z,26.50
2018-07-03T10:58:08.991Z,26.40
2018-07-03T10:59:05.108Z,26.40
2018-07-03T11:00:05.425Z,26.40
2018-07-03T11:01:06.147Z,26.40
2018-07-03T11:02:07.851Z,26.40
2018-07-03T11:03:05.250Z,26.40
2018-07-03T11:04:05.537Z,26.50
2018-07-03T11:05:06.319Z,26.50
2018-07-03T11:06:05.671Z,26.50
2018-07-03T11:07:05.373Z,26.60
2018-07-03T11:08:05.619Z,26.60
2018-07-03T11:09:05.239Z,26.70
2018-07-03T11:10:05.947Z,26.70
2018-07-03T11:11:08.404Z,26.80
2018-07-03T11:12:05.961Z,26.80
2018-07-03T11:13:05.793Z,26.90
2018-07-03T11:14:05.493Z,26.90
2018-07-03T11:15:05.439Z,27.00
2018-07-03T11:16:05.443Z,27.10
2018-07-03T11:17:05.821Z,27.20
2018-07-03T11:18:05.890Z,27.20
2018-07-03T11:19:05.130Z,27.30
2018-07-03T11:20:05.956Z,27.40
2018-07-03T11:21:08.287Z,27.50
2018-07-03T11:22:05.780Z,27.50
2018-07-03T11:23:05.502Z,27.50
2018-07-03T11:24:08.499Z,27.60
2018-07-03T11:25:08.435Z,27.50
2018-07-03T11:26:05.767Z,27.50
2018-07-03T11:27:05.987Z,27.50
2018-07-03T11:28:05.637Z,27.50
2018-07-03T11:29:05.134Z,27.50
2018-07-03T11:30:06.104Z,27.60
2018-07-03T11:31:05.660Z,27.60
2018-07-03T11:32:06.205Z,27.70
2018-07-03T11:33:08.048Z,27.60
2018-07-03T11:34:05.478Z,27.70
2018-07-03T11:35:05.796Z,27.70
2018-07-03T11:36:08.325Z,27.70
2018-07-03T11:37:05.782Z,27.70
2018-07-03T11:38:08.144Z,27.70
2018-07-03T11:39:10.802Z,27.70
2018-07-03T11:40:05.241Z,27.70
2018-07-03T11:41:10.811Z,27.70
2018-07-03T11:42:05.275Z,27.70
2018-07-03T11:43:08.495Z,27.70
2018-07-03T11:44:05.891Z,27.60
2018-07-03T11:45:05.530Z,27.60
2018-07-03T11:46:08.516Z,27.50
2018-07-03T11:47:05.891Z,27.50
2018-07-03T11:48:10.458Z,27.40
2018-07-03T11:49:05.935Z,27.50
2018-07-03T11:50:05.254Z,27.40
2018-07-03T11:51:05.675Z,27.40
2018-07-03T11:52:05.419Z,27.40
2018-07-03T11:53:08.517Z,27.50
2018-07-03T11:54:05.913Z,27.50
2018-07-03T11:55:05.527Z,27.50
2018-07-03T11:56:07.769Z,27.60
2018-07-03T11:57:10.775Z,27.70
2018-07-03T11:58:05.156Z,27.60
2018-07-03T11:59:05.850Z,27.60
2018-07-03T12:00:15.514Z,27.60
2018-07-03T12:01:05.856Z,27.60
2018-07-03T12:02:12.666Z,27.50
2018-07-03T12:03:06.052Z,27.50
2018-07-03T12:04:05.706Z,27.40
2018-07-03T12:05:05.049Z,27.40
2018-07-03T12:06:05.728Z,27.30
2018-07-03T12:07:05.828Z,27.30
2018-07-03T12:08:05.521Z,27.30
2018-07-03T12:09:05.457Z,27.20
2018-07-03T12:10:08.730Z,27.30
2018-07-03T12:11:15.316Z,27.30
2018-07-03T12:12:05.886Z,27.30
2018-07-03T12:13:10.547Z,27.40
2018-07-03T12:14:08.224Z,27.40
2018-07-03T12:15:10.707Z,27.40
2018-07-03T12:16:06.364Z,27.40
2018-07-03T12:17:06.034Z,27.40
2018-07-03T12:18:05.413Z,27.40
2018-07-03T12:19:05.965Z,27.40
2018-07-03T12:20:05.379Z,27.40
2018-07-03T12:21:08.854Z,27.40
2018-07-03T12:22:05.332Z,27.30
2018-07-03T12:23:05.791Z,27.20
2018-07-03T12:24:05.369Z,27.20
2018-07-03T12:25:06.039Z,27.20
2018-07-03T12:26:08.882Z,27.10
2018-07-03T12:27:07.904Z,27.10
2018-07-03T12:28:05.300Z,27.20
2018-07-03T12:29:05.101Z,27.10
2018-07-03T12:30:07.927Z,27.20
2018-07-03T12:31:10.486Z,27.20
2018-07-03T12:32:06.047Z,27.20
2018-07-03T12:33:06.249Z,27.30
2018-07-03T12:34:08.926Z,27.30
2018-07-03T12:35:05.338Z,27.30
2018-07-03T12:36:05.199Z,27.30
2018-07-03T12:37:10.905Z,27.20
2018-07-03T12:38:05.390Z,27.20
2018-07-03T12:39:05.550Z,27.20
2018-07-03T12:40:06.050Z,27.20
2018-07-03T12:41:05.668Z,27.20
2018-07-03T12:42:05.041Z,27.20
2018-07-03T12:43:05.998Z,27.20
2018-07-03T12:44:05.425Z,27.20
2018-07-03T12:45:05.176Z,27.30
2018-07-03T12:46:05.266Z,27.30
2018-07-03T12:47:05.322Z,27.40
2018-07-03T12:48:05.349Z,27.40
2018-07-03T12:49:05.811Z,27.40
2018-07-03T12:50:05.799Z,27.50
2018-07-03T12:51:05.813Z,27.50
2018-07-03T12:52:10.365Z,27.60
2018-07-03T12:53:10.680Z,27.70